Southwick, Massachusetts
Current Conditions -  °F | °C
As of 7:53 PM on Tuesday 21 Oct 2014 (Local Time) from KBAF Reporting Station
Overcast Overcast  
Wind Chill: 54°   Ceiling: 5000
Heat Index: 54°   Visibility: 10mi
Dew Point: 48°   Wind: 13mph
Humidity: 80%   Direction: 10°N
Pressure: 29.93"   Gusts: NA
Location:  42.05°N, 72.77°W
Report Text: KBAF 212353Z 01011KT 10SM FEW017 BKN050 OVC100 12/09 A2993 RMK AO2 SLP138 T01220089 10161 20122 53013
Loading
Personal Weather Stations






























Interactive Weather Map
Tropical Storm Tracking
New forecast layout! Learn more

10-Day Weather Forecast

Advertisements
Track Severe Weather on mobile